British Eagle — MGSM5 — position and weather

sailwx.info

Track history (hours):
 
Tides and Currents Weather Stations Pressure Air Temp Water Temp Dewpoint Dewpoint Depression Visibility Wind Speed Wind Dir Waves Ship Positions

British Eagle

Last reported at 2017-Dec-08 12:00 UTC. Time now 2017-Dec-15 12:01 UTC.
Position N 60°12' E 000°36'.

Length 251.5 m; beam 43.8 m; draft 15 m.

Type: Tanker. MMSI: 232168000.

Wind from 320 at 55 knots

Barometer 991.6 mb
Air temperature 5.0 ° C
Visibility: greater than 2.2 NM
Dewpoint 2.5 ° C
Water temperature 8.6 ° C

Date/timePositionNaut miles runAvg speedWind from/ knotsBaromVisibWave heightAir tempDewpointWater temp
2017-Dec-08 12:00N 60°12' E 000°36'60 2.5 320 / 55991.6 2.2 5.0 2.5 8.6
2017-Dec-07 12:00N 61°12' E 000°24'   180 / 28962.8 5.4 6.0 0.9 9.0
2017-Dec-05 06:00N 57°12' E 000°00'25410.6 250 / 211023.7 5.4 9.5 7.4
2017-Dec-04 06:00N 53°18' E 002°54'9612.1 120 / 221026.5 5.4 9.4 5.9
2017-Dec-03 22:05N 51°44' E 002°31'111.0
2017-Dec-03 21:58N 51°43' E 002°30'510.8
2017-Dec-03 21:29N 51°39' E 002°24'610.5
2017-Dec-03 20:58N 51°34' E 002°19'510.0
2017-Dec-03 20:28N 51°31' E 002°14'4 9.4
2017-Dec-03 20:01N 51°27' E 002°11'510.0
2017-Dec-03 19:30N 51°22' E 002°12'612.4
2017-Dec-03 19:01N 51°21' E 002°22'813.9
2017-Dec-03 18:26N 51°23' E 002°35'612.4
2017-Dec-03 18:00N 51°23' E 002°43'713.3
2017-Dec-03 17:30N 51°25' E 002°53'714.6
2017-Dec-03 17:00N 51°24' E 003°05'815.4
2017-Dec-03 16:30N 51°25' E 003°17'815.9
2017-Dec-03 16:00N 51°25' E 003°30'611.4
2017-Dec-03 15:30N 51°27' E 003°39'713.4
2017-Dec-03 15:00N 51°22' E 003°46'713.1
2017-Dec-03 14:30N 51°23' E 003°56'4 8.0
2017-Dec-03 14:00N 51°25' E 004°02'5 9.4
2017-Dec-03 13:30N 51°22' E 004°08'3 6.2
2017-Dec-03 13:00N 51°22' E 004°13'3 5.6
2017-Dec-03 12:30N 51°21' E 004°17'0 0.0
2017-Dec-03 12:01N 51°21' E 004°17'0 0.1
2017-Dec-03 11:30N 51°21' E 004°17'0 0.9
2017-Dec-03 11:00N 51°20' E 004°18'0 0.1
2017-Dec-03 10:28N 51°20' E 004°18'0 0.0
2017-Dec-03 09:43N 51°20' E 004°18'0 0.0
2017-Dec-03 09:22N 51°20' E 004°18'0 0.0
2017-Dec-03 08:58N 51°20' E 004°18'0 0.0
2017-Dec-03 08:28N 51°20' E 004°18'0 0.0
2017-Dec-03 07:55N 51°20' E 004°18'0 0.0
2017-Dec-03 07:28N 51°20' E 004°18'0 0.0
2017-Dec-03 06:49N 51°20' E 004°18'0 0.0
2017-Dec-03 06:28N 51°20' E 004°18'0 0.0
2017-Dec-03 05:52N 51°20' E 004°18'0 0.0
2017-Dec-03 05:28N 51°20' E 004°18'0 0.0
2017-Dec-03 04:55N 51°20' E 004°18'0 0.0
2017-Dec-03 04:28N 51°20' E 004°18'0 0.0
2017-Dec-03 03:49N 51°20' E 004°18'0 0.0
2017-Dec-03 03:25N 51°20' E 004°18'0 0.0
2017-Dec-03 02:58N 51°20' E 004°18'0 0.0
2017-Dec-03 02:28N 51°20' E 004°18'0 0.0
2017-Dec-03 01:49N 51°20' E 004°18'0 0.0
2017-Dec-03 01:22N 51°20' E 004°18'0 0.0
2017-Dec-03 00:55N 51°20' E 004°18'0 0.0
2017-Dec-03 00:16N 51°20' E 004°18'0 0.0
2017-Dec-02 23:49N 51°20' E 004°18'0 0.0
2017-Dec-02 22:40N 51°20' E 004°18'0 0.0
2017-Dec-02 22:22N 51°20' E 004°18'0 0.0
2017-Dec-02 21:58N 51°20' E 004°18'0 0.0
2017-Dec-02 21:25N 51°20' E 004°18'0 0.0
2017-Dec-02 20:52N 51°20' E 004°18'0 0.0
2017-Dec-02 20:28N 51°20' E 004°18'0 0.0
2017-Dec-02 19:55N 51°20' E 004°18'0 0.0
2017-Dec-02 19:25N 51°20' E 004°18'0 0.0
2017-Dec-02 18:31N 51°20' E 004°18'0 0.1
2017-Dec-02 18:16N 51°20' E 004°18'0 0.0
2017-Dec-02 17:55N 51°20' E 004°18'0 0.0
2017-Dec-02 17:28N 51°20' E 004°18'0 0.0
2017-Dec-02 17:00N 51°20' E 004°18'0 0.0
2017-Dec-02 16:30N 51°20' E 004°18'0 0.0
2017-Dec-02 16:00N 51°20' E 004°18'0 0.0
2017-Dec-02 15:30N 51°20' E 004°18'0 0.0
2017-Dec-02 15:00N 51°20' E 004°18'0 0.0
2017-Dec-02 14:24N 51°20' E 004°18'0 0.0
2017-Dec-02 14:00N 51°20' E 004°18'0 0.0
2017-Dec-02 13:30N 51°20' E 004°18'0 0.0
2017-Dec-02 13:00N 51°20' E 004°18'0 0.0
2017-Dec-02 12:30N 51°20' E 004°18'0 0.0
2017-Dec-02 11:57N 51°20' E 004°18'0 0.0
2017-Dec-02 11:24N 51°20' E 004°18'0 0.0
2017-Dec-02 10:54N 51°20' E 004°18'0 0.0
2017-Dec-02 10:30N 51°20' E 004°18'0 0.0
2017-Dec-02 09:51N 51°20' E 004°18'0 0.0
2017-Dec-02 09:27N 51°20' E 004°18'0 0.0
2017-Dec-02 08:45N 51°20' E 004°18'0 0.0
2017-Dec-02 08:30N 51°20' E 004°18'0 0.0
2017-Dec-02 07:57N 51°20' E 004°18'0 0.0
2017-Dec-02 07:30N 51°20' E 004°18'0 0.0
2017-Dec-02 06:42N 51°20' E 004°18'0 0.0
2017-Dec-02 06:21N 51°20' E 004°18'0 0.0
2017-Dec-02 05:51N 51°20' E 004°18'0 0.0
2017-Dec-02 05:30N 51°20' E 004°18'0 0.0
2017-Dec-02 05:00N 51°20' E 004°18'0 0.0
2017-Dec-02 04:18N 51°20' E 004°18'0 0.0
2017-Dec-02 04:00N 51°20' E 004°18'0 0.0
2017-Dec-02 03:24N 51°20' E 004°18'0 0.0
2017-Dec-02 03:00N 51°20' E 004°18'0 0.0
2017-Dec-02 02:24N 51°20' E 004°18'0 0.0
2017-Dec-02 02:00N 51°20' E 004°18'0 0.0
2017-Dec-02 01:30N 51°20' E 004°18'0 0.0
2017-Dec-02 01:00N 51°20' E 004°18'0 0.0
2017-Dec-02 00:15N 51°20' E 004°18'0 0.0
2017-Dec-02 00:00N 51°20' E 004°18'0 0.0
2017-Dec-01 23:27N 51°20' E 004°18'0 0.0
2017-Dec-01 23:00N 51°20' E 004°18'0 0.0
2017-Dec-01 22:24N 51°20' E 004°18'0 0.0
2017-Dec-01 22:00N 51°20' E 004°18'0 0.0
2017-Dec-01 21:27N 51°20' E 004°18'0 0.0
2017-Dec-01 21:00N 51°20' E 004°18'0 0.0
2017-Dec-01 20:30N 51°20' E 004°18'0 0.0
2017-Dec-01 20:00N 51°20' E 004°18'0 0.0
2017-Dec-01 19:21N 51°20' E 004°18'0 0.0
2017-Dec-01 18:51N 51°20' E 004°18'0 0.0
2017-Dec-01 18:24N 51°20' E 004°18'0 0.0
2017-Dec-01 17:57N 51°20' E 004°18'0 0.0
2017-Dec-01 17:30N 51°20' E 004°18'0 0.0
2017-Dec-01 16:51N 51°20' E 004°18'0 0.0
2017-Dec-01 16:30N 51°20' E 004°18'0 0.0
2017-Dec-01 15:54N 51°20' E 004°18'0 0.0
2017-Dec-01 15:27N 51°20' E 004°18'0 0.0
2017-Dec-01 14:54N 51°20' E 004°18'0 0.0
2017-Dec-01 14:27N 51°20' E 004°18'0 0.0
2017-Dec-01 14:00N 51°20' E 004°18'0 0.0
2017-Dec-01 13:24N 51°20' E 004°18'0 0.0
2017-Dec-01 12:54N 51°20' E 004°18'0 0.0
2017-Dec-01 12:18N 51°20' E 004°18'0 0.0
2017-Dec-01 12:00N 51°20' E 004°18'0 0.0
2017-Dec-01 10:03N 51°20' E 004°18'0 0.0
2017-Dec-01 09:57N 51°20' E 004°18'0 0.0
2017-Dec-01 09:15N 51°20' E 004°18'0 0.0
2017-Dec-01 09:00N 51°20' E 004°18'0 0.0
2017-Dec-01 07:42N 51°20' E 004°18'0 0.0
2017-Dec-01 07:29N 51°20' E 004°18'0 0.0
2017-Dec-01 06:59N 51°20' E 004°18'0 0.0
2017-Dec-01 06:20N 51°20' E 004°18'0 0.0
2017-Dec-01 05:56N 51°20' E 004°18'0 0.0
2017-Dec-01 05:23N 51°20' E 004°18'0 0.0
2017-Dec-01 04:53N 51°20' E 004°18'0 0.0
2017-Dec-01 04:11N 51°20' E 004°18'0 0.0
2017-Dec-01 03:53N 51°20' E 004°18'0 0.0
2017-Dec-01 03:29N 51°20' E 004°18'0 0.0
2017-Dec-01 02:17N 51°20' E 004°18'0 0.0
2017-Dec-01 01:59N 51°20' E 004°18'0 0.0
2017-Dec-01 01:23N 51°20' E 004°18'0 0.0
2017-Dec-01 00:56N 51°20' E 004°18'0 0.0
2017-Dec-01 00:26N 51°20' E 004°18'0 0.0
2017-Nov-30 23:41N 51°20' E 004°18'0 0.0
2017-Nov-30 23:29N 51°20' E 004°18'0 0.0
2017-Nov-30 23:00N 51°20' E 004°18'0 0.7
2017-Nov-30 22:30N 51°21' E 004°18'0 0.7
2017-Nov-30 22:01N 51°21' E 004°17'0 0.0
2017-Nov-30 21:31N 51°21' E 004°17'0 0.1
2017-Nov-30 21:00N 51°21' E 004°17'2 4.0
2017-Nov-30 20:30N 51°21' E 004°14'4 8.3
2017-Nov-30 20:01N 51°22' E 004°08'611.0
2017-Nov-30 19:30N 51°26' E 004°01'612.5
2017-Nov-30 19:00N 51°21' E 003°54'612.8
2017-Nov-30 18:30N 51°22' E 003°44'510.6
2017-Nov-30 18:00N 51°26' E 003°37'4 8.0
2017-Nov-30 17:30N 51°25' E 003°31'613.0
2017-Nov-30 17:00N 51°24' E 003°21'612.0
2017-Nov-30 16:30N 51°24' E 003°11'611.8
2017-Nov-30 16:00N 51°25' E 003°02'612.5
2017-Nov-30 15:30N 51°25' E 002°52'611.9
2017-Nov-30 14:59N 51°23' E 002°42'5 8.4
2017-Nov-30 14:26N 51°22' E 002°35'610.9
2017-Nov-30 13:54N 51°21' E 002°26'513.1
2017-Nov-30 13:30N 51°19' E 002°18'612.7
2017-Nov-30 13:00N 51°19' E 002°08'713.6
2017-Nov-30 12:30N 51°24' E 001°60'611.2
2017-Nov-30 12:00N 51°29' E 002°03'612.5
2017-Nov-30 11:30N 51°33' E 002°10'612.2
2017-Nov-30 10:59N 51°38' E 002°17'32212.9
2017-Nov-29 09:56N 56°23' E 006°33'613.2
2017-Nov-29 09:29N 56°29' E 006°36'14912.2
2017-Nov-28 21:14N 57°49' E 010°28'313.0
2017-Nov-28 21:00N 57°49' E 010°34'712.2
2017-Nov-28 20:28N 57°47' E 010°45'510.6
2017-Nov-28 19:59N 57°45' E 010°54'510.2
2017-Nov-28 19:30N 57°41' E 011°00'713.1
2017-Nov-28 18:59N 57°37' E 011°10'613.5
2017-Nov-28 18:30N 57°32' E 011°19'613.1
2017-Nov-28 18:01N 57°27' E 011°26'713.3
2017-Nov-28 17:30N 57°21' E 011°30'713.4
2017-Nov-28 17:00N 57°14' E 011°35'713.4
2017-Nov-28 16:30N 57°08' E 011°39'713.3
2017-Nov-28 15:58N 57°01' E 011°43'  
Track history (hours):
 
Tides and Currents Weather Stations Pressure Air Temp Water Temp Dewpoint Dewpoint Depression Visibility Wind Speed Wind Dir Waves Ship Positions

British Eagle

Last reported at 2017-Dec-08 12:00 UTC. Time now 2017-Dec-15 12:01 UTC.
Position N 60°12' E 000°36'.

Length 251.5 m; beam 43.8 m; draft 15 m.

Type: Tanker. MMSI: 232168000.

Wind from 320 at 55 knots

Barometer 991.6 mb
Air temperature 5.0 ° C
Visibility: greater than 2.2 NM
Dewpoint 2.5 ° C
Water temperature 8.6 ° C

Date/timePositionNaut miles runAvg speedWind from/ knotsBaromVisibWave heightAir tempDewpointWater temp
2017-Dec-08 12:00N 60°12' E 000°36'60 2.5 320 / 55991.6 2.2 5.0 2.5 8.6
2017-Dec-07 12:00N 61°12' E 000°24'   180 / 28962.8 5.4 6.0 0.9 9.0
2017-Dec-05 06:00N 57°12' E 000°00'25410.6 250 / 211023.7 5.4 9.5 7.4
2017-Dec-04 06:00N 53°18' E 002°54'9612.1 120 / 221026.5 5.4 9.4 5.9
2017-Dec-03 22:05N 51°44' E 002°31'111.0
2017-Dec-03 21:58N 51°43' E 002°30'510.8
2017-Dec-03 21:29N 51°39' E 002°24'610.5
2017-Dec-03 20:58N 51°34' E 002°19'510.0
2017-Dec-03 20:28N 51°31' E 002°14'4 9.4
2017-Dec-03 20:01N 51°27' E 002°11'510.0
2017-Dec-03 19:30N 51°22' E 002°12'612.4
2017-Dec-03 19:01N 51°21' E 002°22'813.9
2017-Dec-03 18:26N 51°23' E 002°35'612.4
2017-Dec-03 18:00N 51°23' E 002°43'713.3
2017-Dec-03 17:30N 51°25' E 002°53'714.6
2017-Dec-03 17:00N 51°24' E 003°05'815.4
2017-Dec-03 16:30N 51°25' E 003°17'815.9
2017-Dec-03 16:00N 51°25' E 003°30'611.4
2017-Dec-03 15:30N 51°27' E 003°39'713.4
2017-Dec-03 15:00N 51°22' E 003°46'713.1
2017-Dec-03 14:30N 51°23' E 003°56'4 8.0
2017-Dec-03 14:00N 51°25' E 004°02'5 9.4
2017-Dec-03 13:30N 51°22' E 004°08'3 6.2
2017-Dec-03 13:00N 51°22' E 004°13'3 5.6
2017-Dec-03 12:30N 51°21' E 004°17'0 0.0
2017-Dec-03 12:01N 51°21' E 004°17'0 0.1
2017-Dec-03 11:30N 51°21' E 004°17'0 0.9
2017-Dec-03 11:00N 51°20' E 004°18'0 0.1
2017-Dec-03 10:28N 51°20' E 004°18'0 0.0
2017-Dec-03 09:43N 51°20' E 004°18'0 0.0
2017-Dec-03 09:22N 51°20' E 004°18'0 0.0
2017-Dec-03 08:58N 51°20' E 004°18'0 0.0
2017-Dec-03 08:28N 51°20' E 004°18'0 0.0
2017-Dec-03 07:55N 51°20' E 004°18'0 0.0
2017-Dec-03 07:28N 51°20' E 004°18'0 0.0
2017-Dec-03 06:49N 51°20' E 004°18'0 0.0
2017-Dec-03 06:28N 51°20' E 004°18'0 0.0
2017-Dec-03 05:52N 51°20' E 004°18'0 0.0
2017-Dec-03 05:28N 51°20' E 004°18'0 0.0
2017-Dec-03 04:55N 51°20' E 004°18'0 0.0
2017-Dec-03 04:28N 51°20' E 004°18'0 0.0
2017-Dec-03 03:49N 51°20' E 004°18'0 0.0
2017-Dec-03 03:25N 51°20' E 004°18'0 0.0
2017-Dec-03 02:58N 51°20' E 004°18'0 0.0
2017-Dec-03 02:28N 51°20' E 004°18'0 0.0
2017-Dec-03 01:49N 51°20' E 004°18'0 0.0
2017-Dec-03 01:22N 51°20' E 004°18'0 0.0
2017-Dec-03 00:55N 51°20' E 004°18'0 0.0
2017-Dec-03 00:16N 51°20' E 004°18'0 0.0
2017-Dec-02 23:49N 51°20' E 004°18'0 0.0
2017-Dec-02 22:40N 51°20' E 004°18'0 0.0
2017-Dec-02 22:22N 51°20' E 004°18'0 0.0
2017-Dec-02 21:58N 51°20' E 004°18'0 0.0
2017-Dec-02 21:25N 51°20' E 004°18'0 0.0
2017-Dec-02 20:52N 51°20' E 004°18'0 0.0
2017-Dec-02 20:28N 51°20' E 004°18'0 0.0
2017-Dec-02 19:55N 51°20' E 004°18'0 0.0
2017-Dec-02 19:25N 51°20' E 004°18'0 0.0
2017-Dec-02 18:31N 51°20' E 004°18'0 0.1
2017-Dec-02 18:16N 51°20' E 004°18'0 0.0
2017-Dec-02 17:55N 51°20' E 004°18'0 0.0
2017-Dec-02 17:28N 51°20' E 004°18'0 0.0
2017-Dec-02 17:00N 51°20' E 004°18'0 0.0
2017-Dec-02 16:30N 51°20' E 004°18'0 0.0
2017-Dec-02 16:00N 51°20' E 004°18'0 0.0
2017-Dec-02 15:30N 51°20' E 004°18'0 0.0
2017-Dec-02 15:00N 51°20' E 004°18'0 0.0
2017-Dec-02 14:24N 51°20' E 004°18'0 0.0
2017-Dec-02 14:00N 51°20' E 004°18'0 0.0
2017-Dec-02 13:30N 51°20' E 004°18'0 0.0
2017-Dec-02 13:00N 51°20' E 004°18'0 0.0
2017-Dec-02 12:30N 51°20' E 004°18'0 0.0
2017-Dec-02 11:57N 51°20' E 004°18'0 0.0
2017-Dec-02 11:24N 51°20' E 004°18'0 0.0
2017-Dec-02 10:54N 51°20' E 004°18'0 0.0
2017-Dec-02 10:30N 51°20' E 004°18'0 0.0
2017-Dec-02 09:51N 51°20' E 004°18'0 0.0
2017-Dec-02 09:27N 51°20' E 004°18'0 0.0
2017-Dec-02 08:45N 51°20' E 004°18'0 0.0
2017-Dec-02 08:30N 51°20' E 004°18'0 0.0
2017-Dec-02 07:57N 51°20' E 004°18'0 0.0
2017-Dec-02 07:30N 51°20' E 004°18'0 0.0
2017-Dec-02 06:42N 51°20' E 004°18'0 0.0
2017-Dec-02 06:21N 51°20' E 004°18'0 0.0
2017-Dec-02 05:51N 51°20' E 004°18'0 0.0
2017-Dec-02 05:30N 51°20' E 004°18'0 0.0
2017-Dec-02 05:00N 51°20' E 004°18'0 0.0
2017-Dec-02 04:18N 51°20' E 004°18'0 0.0
2017-Dec-02 04:00N 51°20' E 004°18'0 0.0
2017-Dec-02 03:24N 51°20' E 004°18'0 0.0
2017-Dec-02 03:00N 51°20' E 004°18'0 0.0
2017-Dec-02 02:24N 51°20' E 004°18'0 0.0
2017-Dec-02 02:00N 51°20' E 004°18'0 0.0
2017-Dec-02 01:30N 51°20' E 004°18'0 0.0
2017-Dec-02 01:00N 51°20' E 004°18'0 0.0
2017-Dec-02 00:15N 51°20' E 004°18'0 0.0
2017-Dec-02 00:00N 51°20' E 004°18'0 0.0
2017-Dec-01 23:27N 51°20' E 004°18'0 0.0
2017-Dec-01 23:00N 51°20' E 004°18'0 0.0
2017-Dec-01 22:24N 51°20' E 004°18'0 0.0
2017-Dec-01 22:00N 51°20' E 004°18'0 0.0
2017-Dec-01 21:27N 51°20' E 004°18'0 0.0
2017-Dec-01 21:00N 51°20' E 004°18'0 0.0
2017-Dec-01 20:30N 51°20' E 004°18'0 0.0
2017-Dec-01 20:00N 51°20' E 004°18'0 0.0
2017-Dec-01 19:21N 51°20' E 004°18'0 0.0
2017-Dec-01 18:51N 51°20' E 004°18'0 0.0
2017-Dec-01 18:24N 51°20' E 004°18'0 0.0
2017-Dec-01 17:57N 51°20' E 004°18'0 0.0
2017-Dec-01 17:30N 51°20' E 004°18'0 0.0
2017-Dec-01 16:51N 51°20' E 004°18'0 0.0
2017-Dec-01 16:30N 51°20' E 004°18'0 0.0
2017-Dec-01 15:54N 51°20' E 004°18'0 0.0
2017-Dec-01 15:27N 51°20' E 004°18'0 0.0
2017-Dec-01 14:54N 51°20' E 004°18'0 0.0
2017-Dec-01 14:27N 51°20' E 004°18'0 0.0
2017-Dec-01 14:00N 51°20' E 004°18'0 0.0
2017-Dec-01 13:24N 51°20' E 004°18'0 0.0
2017-Dec-01 12:54N 51°20' E 004°18'0 0.0
2017-Dec-01 12:18N 51°20' E 004°18'0 0.0
2017-Dec-01 12:00N 51°20' E 004°18'0 0.0
2017-Dec-01 10:03N 51°20' E 004°18'0 0.0
2017-Dec-01 09:57N 51°20' E 004°18'0 0.0
2017-Dec-01 09:15N 51°20' E 004°18'0 0.0
2017-Dec-01 09:00N 51°20' E 004°18'0 0.0
2017-Dec-01 07:42N 51°20' E 004°18'0 0.0
2017-Dec-01 07:29N 51°20' E 004°18'0 0.0
2017-Dec-01 06:59N 51°20' E 004°18'0 0.0
2017-Dec-01 06:20N 51°20' E 004°18'0 0.0
2017-Dec-01 05:56N 51°20' E 004°18'0 0.0
2017-Dec-01 05:23N 51°20' E 004°18'0 0.0
2017-Dec-01 04:53N 51°20' E 004°18'0 0.0
2017-Dec-01 04:11N 51°20' E 004°18'0 0.0
2017-Dec-01 03:53N 51°20' E 004°18'0 0.0
2017-Dec-01 03:29N 51°20' E 004°18'0 0.0
2017-Dec-01 02:17N 51°20' E 004°18'0 0.0
2017-Dec-01 01:59N 51°20' E 004°18'0 0.0
2017-Dec-01 01:23N 51°20' E 004°18'0 0.0
2017-Dec-01 00:56N 51°20' E 004°18'0 0.0
2017-Dec-01 00:26N 51°20' E 004°18'0 0.0
2017-Nov-30 23:41N 51°20' E 004°18'0 0.0
2017-Nov-30 23:29N 51°20' E 004°18'0 0.0
2017-Nov-30 23:00N 51°20' E 004°18'0 0.7
2017-Nov-30 22:30N 51°21' E 004°18'0 0.7
2017-Nov-30 22:01N 51°21' E 004°17'0 0.0
2017-Nov-30 21:31N 51°21' E 004°17'0 0.1
2017-Nov-30 21:00N 51°21' E 004°17'2 4.0
2017-Nov-30 20:30N 51°21' E 004°14'4 8.3
2017-Nov-30 20:01N 51°22' E 004°08'611.0
2017-Nov-30 19:30N 51°26' E 004°01'612.5
2017-Nov-30 19:00N 51°21' E 003°54'612.8
2017-Nov-30 18:30N 51°22' E 003°44'510.6
2017-Nov-30 18:00N 51°26' E 003°37'4 8.0
2017-Nov-30 17:30N 51°25' E 003°31'613.0
2017-Nov-30 17:00N 51°24' E 003°21'612.0
2017-Nov-30 16:30N 51°24' E 003°11'611.8
2017-Nov-30 16:00N 51°25' E 003°02'612.5
2017-Nov-30 15:30N 51°25' E 002°52'611.9
2017-Nov-30 14:59N 51°23' E 002°42'5 8.4
2017-Nov-30 14:26N 51°22' E 002°35'610.9
2017-Nov-30 13:54N 51°21' E 002°26'513.1
2017-Nov-30 13:30N 51°19' E 002°18'612.7
2017-Nov-30 13:00N 51°19' E 002°08'713.6
2017-Nov-30 12:30N 51°24' E 001°60'611.2
2017-Nov-30 12:00N 51°29' E 002°03'612.5
2017-Nov-30 11:30N 51°33' E 002°10'612.2
2017-Nov-30 10:59N 51°38' E 002°17'32212.9
2017-Nov-29 09:56N 56°23' E 006°33'613.2
2017-Nov-29 09:29N 56°29' E 006°36'14912.2
2017-Nov-28 21:14N 57°49' E 010°28'313.0
2017-Nov-28 21:00N 57°49' E 010°34'712.2
2017-Nov-28 20:28N 57°47' E 010°45'510.6
2017-Nov-28 19:59N 57°45' E 010°54'510.2
2017-Nov-28 19:30N 57°41' E 011°00'713.1
2017-Nov-28 18:59N 57°37' E 011°10'613.5
2017-Nov-28 18:30N 57°32' E 011°19'613.1
2017-Nov-28 18:01N 57°27' E 011°26'713.3
2017-Nov-28 17:30N 57°21' E 011°30'713.4
2017-Nov-28 17:00N 57°14' E 011°35'713.4
2017-Nov-28 16:30N 57°08' E 011°39'713.3
2017-Nov-28 15:58N 57°01' E 011°43'  

Dump ship's entire track history